Time;durP1;ratioP1;P1;durP2;ratioP2;P2;SDS_P1;SDS_P2;PMS_P1;PMS_P2;Temp;Humidity;BMP_temperature;BMP_pressure;BME280_temperature;BME280_humidity;BME280_pressure;Samples;Min_cycle;Max_cycle;Signal;HPM_P1;HPM_P2
2023/06/24 00:00:57;;;;;;;8.27;5.50;;;18.80;1.00;;;;;;20520817;28;20043;-42
2023/06/24 00:11:19;;;;;;;7.05;5.22;;;18.70;1.00;;;;;;20518388;28;20493;-41
2023/06/24 00:21:40;;;;;;;9.68;5.30;;;18.50;1.00;;;;;;20510156;28;20055;-42
2023/06/24 00:32:01;;;;;;;7.82;4.70;;;18.40;1.00;;;;;;20512494;28;20292;-41
2023/06/24 00:42:23;;;;;;;5.35;3.58;;;18.30;1.00;;;;;;20511875;28;20069;-42
2023/06/24 00:52:44;;;;;;;4.13;2.70;;;18.10;1.00;;;;;;20514175;28;20204;-42
2023/06/24 01:03:06;;;;;;;4.15;2.63;;;18.00;1.00;;;;;;20511221;28;20043;-42
2023/06/24 01:13:27;;;;;;;3.40;2.20;;;17.80;1.00;;;;;;20515033;28;20043;-42
2023/06/24 01:24:27;;;;;;;4.28;2.28;;;17.70;1.00;;;;;;20512232;28;20048;-42
2023/06/24 01:34:59;;;;;;;4.05;2.50;;;17.50;1.00;;;;;;20505777;28;20034;-41
2023/06/24 01:45:26;;;;;;;4.00;2.20;;;17.40;1.00;;;;;;20506674;28;20049;-42
2023/06/24 01:55:49;;;;;;;4.60;3.17;;;17.30;1.00;;;;;;20502582;28;21058;-42
2023/06/24 02:06:13;;;;;;;4.43;2.80;;;17.20;1.00;;;;;;20506907;28;20904;-42
2023/06/24 02:16:36;;;;;;;5.80;2.85;;;17.10;1.00;;;;;;20496281;28;20050;-42
2023/06/24 02:26:58;;;;;;;6.78;3.42;;;17.00;1.00;;;;;;20509296;28;20043;-42
2023/06/24 02:37:19;;;;;;;6.43;4.15;;;16.80;1.00;;;;;;20507231;28;20614;-42
2023/06/24 02:47:43;;;;;;;7.55;4.60;;;16.70;1.00;;;;;;20509869;28;20039;-42
2023/06/24 02:58:07;;;;;;;7.32;4.78;;;16.60;1.00;;;;;;20513087;28;20483;-42
2023/06/24 03:08:29;;;;;;;7.95;5.30;;;16.60;1.00;;;;;;20524316;28;20050;-42
2023/06/24 03:18:50;;;;;;;7.55;5.32;;;16.60;1.00;;;;;;20519530;28;20051;-42
2023/06/24 03:29:12;;;;;;;7.88;5.32;;;16.50;1.00;;;;;;20512113;28;20038;-42
2023/06/24 03:39:33;;;;;;;11.02;6.70;;;16.40;1.00;;;;;;20514488;28;20101;-42
2023/06/24 03:49:54;;;;;;;9.13;6.50;;;16.30;1.60;;;;;;20521164;28;20054;-42
2023/06/24 04:00:20;;;;;;;9.05;5.63;;;16.40;4.40;;;;;;20508251;28;20045;-42
2023/06/24 04:10:43;;;;;;;8.57;5.03;;;16.50;1.40;;;;;;20510869;28;20175;-42
2023/06/24 04:21:04;;;;;;;6.88;4.93;;;16.80;1.00;;;;;;20501190;28;20054;-42
2023/06/24 04:31:27;;;;;;;7.60;4.53;;;16.90;1.00;;;;;;20507287;28;20462;-41
2023/06/24 04:41:49;;;;;;;6.57;4.65;;;17.20;1.00;;;;;;20507833;28;20509;-42
2023/06/24 04:52:14;;;;;;;6.65;4.07;;;17.40;1.00;;;;;;20505928;28;20129;-42
2023/06/24 05:02:36;;;;;;;6.60;4.43;;;17.50;1.00;;;;;;20514812;28;20509;-42
2023/06/24 05:12:57;;;;;;;8.20;5.20;;;17.70;1.00;;;;;;20512635;28;20058;-42
2023/06/24 05:23:18;;;;;;;7.70;4.78;;;18.10;1.00;;;;;;20506913;28;20126;-42
2023/06/24 05:33:39;;;;;;;8.68;4.85;;;18.20;1.00;;;;;;20504605;28;20042;-42
2023/06/24 05:44:03;;;;;;;7.00;4.68;;;18.50;1.00;;;;;;20514838;28;20054;-42
2023/06/24 05:54:24;;;;;;;9.07;5.93;;;18.70;1.00;;;;;;20507906;28;20035;-42
2023/06/24 06:04:46;;;;;;;7.55;4.63;;;18.90;1.00;;;;;;20504703;28;20047;-42
2023/06/24 06:15:08;;;;;;;9.05;5.25;;;19.20;1.00;;;;;;20510289;28;20046;-42
2023/06/24 06:25:30;;;;;;;8.52;5.78;;;19.30;1.00;;;;;;20501814;28;20043;-43
2023/06/24 06:35:51;;;;;;;9.80;5.93;;;19.40;1.00;;;;;;20529401;28;20035;-41
2023/06/24 06:46:12;;;;;;;8.73;5.28;;;19.70;1.00;;;;;;20527585;28;20050;-43
2023/06/24 06:56:34;;;;;;;8.90;4.65;;;19.80;1.00;;;;;;20511610;28;20422;-43
2023/06/24 07:06:55;;;;;;;9.05;5.53;;;20.20;1.00;;;;;;20519576;28;20039;-42
2023/06/24 07:17:16;;;;;;;8.23;4.63;;;20.60;1.00;;;;;;20528570;28;20061;-42
2023/06/24 07:27:38;;;;;;;9.90;5.80;;;20.60;1.00;;;;;;20500866;28;20133;-40
2023/06/24 07:38:00;;;;;;;11.63;5.40;;;20.70;1.00;;;;;;20510350;28;20043;-41
2023/06/24 07:48:21;;;;;;;8.88;5.05;;;21.00;1.00;;;;;;20470213;28;20411;-41
2023/06/24 07:58:42;;;;;;;9.82;6.43;;;21.30;1.00;;;;;;20506514;28;20039;-42
2023/06/24 08:09:04;;;;;;;8.38;5.07;;;21.60;1.00;;;;;;20499894;28;20031;-41
2023/06/24 08:19:25;;;;;;;7.95;4.32;;;21.80;1.00;;;;;;20472710;28;20138;-41
2023/06/24 08:29:47;;;;;;;7.53;5.55;;;22.10;1.00;;;;;;20506053;28;20043;-42
2023/06/24 08:40:08;;;;;;;8.90;5.30;;;22.40;1.00;;;;;;20502682;28;20028;-42
2023/06/24 08:50:35;;;;;;;8.43;4.75;;;22.80;1.00;;;;;;20492733;28;20039;-42
2023/06/24 09:00:56;;;;;;;8.45;4.63;;;23.10;1.00;;;;;;20484239;28;20058;-40
2023/06/24 09:11:22;;;;;;;7.82;5.10;;;23.20;1.00;;;;;;20489843;28;20058;-40
2023/06/24 09:21:46;;;;;;;10.20;5.63;;;23.40;1.00;;;;;;20477271;28;20054;-40
2023/06/24 09:32:07;;;;;;;8.05;5.30;;;23.90;1.00;;;;;;20473715;28;20070;-41
2023/06/24 09:42:29;;;;;;;8.20;5.82;;;24.20;1.00;;;;;;20472287;28;20067;-41
2023/06/24 09:52:52;;;;;;;7.82;5.47;;;24.40;1.00;;;;;;20489458;28;20046;-41
2023/06/24 10:03:13;;;;;;;8.20;5.05;;;24.60;1.00;;;;;;20485877;28;20093;-41
2023/06/24 10:13:35;;;;;;;9.32;5.07;;;25.10;1.00;;;;;;20493566;28;20042;-41
2023/06/24 10:23:57;;;;;;;8.68;5.97;;;25.30;1.00;;;;;;20508319;28;20039;-41
2023/06/24 10:34:29;;;;;;;9.70;5.78;;;25.50;1.00;;;;;;20513575;28;20050;-41
2023/06/24 10:44:52;;;;;;;9.82;5.43;;;25.60;1.00;;;;;;20500673;28;20057;-40
2023/06/24 10:55:15;;;;;;;8.23;5.40;;;26.20;1.00;;;;;;20489308;28;20339;-40
2023/06/24 11:05:45;;;;;;;7.57;5.97;;;26.40;1.00;;;;;;20482260;28;20074;-40
2023/06/24 11:16:06;;;;;;;5.82;3.97;;;26.60;1.00;;;;;;20504689;28;20043;-40
2023/06/24 11:26:28;;;;;;;6.32;3.80;;;26.90;1.00;;;;;;20496161;28;20043;-41
2023/06/24 11:36:49;;;;;;;4.63;3.75;;;27.00;1.00;;;;;;20497635;28;20045;-39
2023/06/24 11:47:12;;;;;;;6.88;4.13;;;27.40;1.00;;;;;;20503305;28;20054;-39
2023/06/24 11:57:53;;;;;;;5.70;4.10;;;27.60;1.00;;;;;;20498244;28;20039;-39
2023/06/24 12:08:15;;;;;;;8.00;6.00;;;27.90;1.00;;;;;;20494334;28;20047;-40
2023/06/24 12:18:36;;;;;;;5.38;3.88;;;27.90;1.00;;;;;;20493154;28;20439;-39
2023/06/24 12:28:58;;;;;;;7.95;4.57;;;28.10;1.00;;;;;;20455332;28;20053;-39
2023/06/24 12:39:19;;;;;;;5.85;3.90;;;27.90;1.00;;;;;;20492435;28;20042;-39
2023/06/24 12:49:40;;;;;;;9.10;4.63;;;27.80;1.00;;;;;;20491847;28;20371;-39
2023/06/24 13:00:05;;;;;;;7.03;4.45;;;27.50;1.00;;;;;;20472454;28;20051;-39
2023/06/24 13:10:26;;;;;;;6.68;3.92;;;26.90;1.00;;;;;;20483484;28;20045;-39
2023/06/24 13:20:47;;;;;;;5.55;4.10;;;27.70;1.00;;;;;;20481299;28;20138;-39
2023/06/24 13:31:09;;;;;;;5.30;4.03;;;28.40;1.00;;;;;;20518687;28;20231;-39
2023/06/24 13:41:32;;;;;;;6.43;4.03;;;28.60;1.00;;;;;;20571350;28;20042;-39
2023/06/24 13:51:53;;;;;;;6.20;4.63;;;28.40;1.00;;;;;;20587949;28;20463;-39
2023/06/24 14:02:15;;;;;;;6.68;4.50;;;28.30;1.00;;;;;;20587031;28;20049;-39
2023/06/24 14:12:37;;;;;;;5.15;4.15;;;28.30;1.00;;;;;;20569766;28;20162;-39
2023/06/24 14:22:58;;;;;;;7.03;5.00;;;28.00;1.00;;;;;;20575740;28;20053;-39
2023/06/24 14:33:19;;;;;;;6.78;4.97;;;28.20;1.00;;;;;;20574415;28;20469;-39
2023/06/24 14:43:41;;;;;;;6.70;4.22;;;28.10;1.00;;;;;;20574657;28;20062;-39
2023/06/24 14:54:02;;;;;;;7.25;4.22;;;28.10;1.00;;;;;;20579743;28;20065;-39
2023/06/24 15:04:24;;;;;;;6.88;4.43;;;27.70;1.00;;;;;;20589944;28;20042;-39
2023/06/24 15:14:46;;;;;;;6.40;4.10;;;27.80;1.00;;;;;;20586741;28;20562;-39
2023/06/24 15:25:08;;;;;;;8.30;5.28;;;28.00;1.00;;;;;;20579328;28;20272;-39
2023/06/24 15:35:29;;;;;;;8.60;5.10;;;27.80;1.00;;;;;;20575206;28;21043;-39
2023/06/24 15:45:51;;;;;;;8.43;4.47;;;27.50;1.00;;;;;;20583841;28;20034;-39
2023/06/24 15:56:12;;;;;;;8.60;5.63;;;27.60;1.00;;;;;;20586322;28;20038;-39
2023/06/24 16:06:35;;;;;;;9.02;6.15;;;27.40;1.00;;;;;;20586612;28;20046;-39
2023/06/24 16:16:56;;;;;;;9.68;5.85;;;27.20;1.00;;;;;;20580281;28;20046;-39
2023/06/24 16:27:17;;;;;;;7.40;5.10;;;27.00;1.00;;;;;;20590452;28;20785;-39
2023/06/24 16:37:41;;;;;;;7.68;5.88;;;26.60;1.00;;;;;;20574963;28;20148;-39
2023/06/24 16:48:03;;;;;;;7.15;5.47;;;26.60;1.00;;;;;;20576555;28;21016;-39
2023/06/24 16:58:24;;;;;;;9.23;6.75;;;26.30;1.00;;;;;;20575755;28;20553;-39
2023/06/24 17:08:46;;;;;;;9.02;6.75;;;26.10;1.00;;;;;;20565719;28;20184;-39
2023/06/24 17:19:07;;;;;;;16.38;11.65;;;25.90;1.00;;;;;;20562333;28;20073;-39
2023/06/24 17:29:28;;;;;;;8.45;6.47;;;25.90;1.00;;;;;;20566481;28;20459;-39
2023/06/24 17:39:50;;;;;;;9.55;6.30;;;25.60;1.00;;;;;;20565370;28;20293;-38
2023/06/24 17:50:11;;;;;;;6.40;4.35;;;25.30;1.00;;;;;;20565414;28;20315;-38
2023/06/24 18:00:39;;;;;;;5.93;4.07;;;25.30;1.00;;;;;;20570727;28;20034;-38
2023/06/24 18:11:00;;;;;;;5.32;3.95;;;25.20;1.00;;;;;;20559346;28;20058;-38
2023/06/24 18:21:22;;;;;;;5.70;3.80;;;25.10;1.00;;;;;;20560581;28;20089;-38
2023/06/24 18:31:43;;;;;;;5.75;3.63;;;25.00;1.00;;;;;;20569347;28;20038;-38
2023/06/24 18:42:05;;;;;;;4.80;3.38;;;24.80;1.00;;;;;;20592984;28;20557;-38
2023/06/24 18:52:26;;;;;;;8.25;4.32;;;24.70;1.00;;;;;;20580205;28;20130;-39
2023/06/24 19:02:49;;;;;;;6.75;3.97;;;24.50;1.00;;;;;;20573433;28;20058;-38
2023/06/24 19:13:10;;;;;;;5.55;4.22;;;24.30;1.00;;;;;;20575497;28;20062;-38
2023/06/24 19:23:32;;;;;;;5.10;3.75;;;24.10;1.00;;;;;;20587352;28;20070;-38
2023/06/24 19:33:54;;;;;;;4.88;3.65;;;23.80;1.00;;;;;;20579907;28;20652;-38
2023/06/24 19:44:15;;;;;;;6.28;4.00;;;23.80;1.00;;;;;;20583760;28;20080;-39
2023/06/24 19:54:37;;;;;;;6.90;3.80;;;23.50;1.00;;;;;;20583477;28;20030;-38
2023/06/24 20:04:58;;;;;;;5.78;3.70;;;23.20;1.00;;;;;;20582244;28;20043;-40
2023/06/24 20:15:19;;;;;;;5.45;3.90;;;22.90;1.00;;;;;;20580266;28;20049;-40
2023/06/24 20:25:41;;;;;;;4.72;3.45;;;22.90;1.00;;;;;;20587246;28;20045;-40
2023/06/24 20:36:02;;;;;;;5.93;4.07;;;22.60;1.00;;;;;;20578949;28;20113;-40
2023/06/24 20:46:24;;;;;;;5.43;4.38;;;22.40;1.00;;;;;;20573430;28;20432;-42
2023/06/24 20:56:46;;;;;;;8.52;4.60;;;22.40;1.00;;;;;;20574889;28;20144;-40
2023/06/24 21:07:07;;;;;;;7.18;4.70;;;22.20;1.00;;;;;;20568514;28;20053;-40
2023/06/24 21:17:28;;;;;;;5.70;4.22;;;22.10;1.00;;;;;;20586699;28;20086;-40
2023/06/24 21:27:50;;;;;;;6.72;5.03;;;21.90;1.00;;;;;;20585665;28;20042;-39
2023/06/24 21:38:11;;;;;;;5.18;3.92;;;21.80;1.00;;;;;;20585867;28;20069;-39
2023/06/24 21:48:32;;;;;;;4.88;3.80;;;21.60;1.00;;;;;;20587261;28;20062;-39
2023/06/24 21:58:54;;;;;;;7.97;4.28;;;21.60;1.00;;;;;;20575675;28;20458;-41
2023/06/24 22:09:16;;;;;;;5.25;4.18;;;21.60;1.00;;;;;;20582399;28;20288;-41
2023/06/24 22:19:38;;;;;;;6.30;4.32;;;21.60;1.00;;;;;;20583663;28;20093;-41
2023/06/24 22:29:59;;;;;;;7.60;5.38;;;21.50;1.00;;;;;;20583285;28;20034;-41
2023/06/24 22:40:21;;;;;;;6.97;4.70;;;21.50;1.00;;;;;;20577898;28;20050;-41
2023/06/24 22:50:42;;;;;;;7.18;4.75;;;21.40;1.00;;;;;;20580045;28;20070;-41
2023/06/24 23:01:04;;;;;;;7.85;4.45;;;21.30;1.00;;;;;;20558182;28;20668;-41
2023/06/24 23:11:26;;;;;;;6.55;4.78;;;21.10;1.00;;;;;;20571164;28;20986;-41
2023/06/24 23:21:47;;;;;;;7.13;4.60;;;20.90;1.00;;;;;;20577787;28;20042;-42
2023/06/24 23:32:09;;;;;;;5.90;4.78;;;20.80;1.00;;;;;;20577495;28;20508;-42
2023/06/24 23:42:31;;;;;;;7.47;4.90;;;20.70;1.00;;;;;;20587301;28;20038;-42
2023/06/24 23:52:52;;;;;;;6.40;4.95;;;20.50;1.00;;;;;;20577325;28;20053;-42
